sensor_id;sensor_type;location;lat;lon;timestamp;P1;durP1;ratioP1;P2;durP2;ratioP2
58950;SDS011;44730;53.158;6.398;2022-12-07T00:00:00;4.70;;;2.05;;
58950;SDS011;44730;53.158;6.398;2022-12-07T00:02:26;4.50;;;2.05;;
58950;SDS011;44730;53.158;6.398;2022-12-07T00:04:52;7.05;;;1.95;;
58950;SDS011;44730;53.158;6.398;2022-12-07T00:07:17;5.18;;;1.80;;
58950;SDS011;44730;53.158;6.398;2022-12-07T00:09:43;6.63;;;2.00;;
58950;SDS011;44730;53.158;6.398;2022-12-07T00:12:09;7.28;;;2.53;;
58950;SDS011;44730;53.158;6.398;2022-12-07T00:14:34;4.55;;;1.90;;
58950;SDS011;44730;53.158;6.398;2022-12-07T00:17:00;6.95;;;1.75;;
58950;SDS011;44730;53.158;6.398;2022-12-07T00:19:26;7.70;;;1.85;;
58950;SDS011;44730;53.158;6.398;2022-12-07T00:21:51;5.90;;;2.05;;
58950;SDS011;44730;53.158;6.398;2022-12-07T00:24:17;8.38;;;1.75;;
58950;SDS011;44730;53.158;6.398;2022-12-07T00:26:43;3.55;;;1.77;;
58950;SDS011;44730;53.158;6.398;2022-12-07T00:29:17;4.88;;;1.45;;
58950;SDS011;44730;53.158;6.398;2022-12-07T00:31:45;5.00;;;1.60;;
58950;SDS011;44730;53.158;6.398;2022-12-07T00:34:12;7.40;;;1.52;;
58950;SDS011;44730;53.158;6.398;2022-12-07T00:36:40;7.10;;;1.42;;
58950;SDS011;44730;53.158;6.398;2022-12-07T00:39:05;4.05;;;1.52;;
58950;SDS011;44730;53.158;6.398;2022-12-07T00:41:31;3.22;;;1.40;;
58950;SDS011;44730;53.158;6.398;2022-12-07T00:43:57;6.25;;;1.63;;
58950;SDS011;44730;53.158;6.398;2022-12-07T00:46:23;2.65;;;1.30;;
58950;SDS011;44730;53.158;6.398;2022-12-07T00:48:49;2.38;;;1.20;;
58950;SDS011;44730;53.158;6.398;2022-12-07T00:51:16;2.55;;;1.27;;
58950;SDS011;44730;53.158;6.398;2022-12-07T00:53:44;5.32;;;1.35;;
58950;SDS011;44730;53.158;6.398;2022-12-07T00:56:12;4.57;;;1.40;;
58950;SDS011;44730;53.158;6.398;2022-12-07T00:58:42;4.18;;;2.03;;
58950;SDS011;44730;53.158;6.398;2022-12-07T01:01:09;3.28;;;1.27;;
58950;SDS011;44730;53.158;6.398;2022-12-07T01:03:36;4.03;;;1.27;;
58950;SDS011;44730;53.158;6.398;2022-12-07T01:06:02;3.50;;;1.40;;
58950;SDS011;44730;53.158;6.398;2022-12-07T01:08:28;7.60;;;1.63;;
58950;SDS011;44730;53.158;6.398;2022-12-07T01:11:05;2.88;;;1.17;;
58950;SDS011;44730;53.158;6.398;2022-12-07T01:13:33;3.17;;;1.33;;
58950;SDS011;44730;53.158;6.398;2022-12-07T01:16:00;5.05;;;1.48;;
58950;SDS011;44730;53.158;6.398;2022-12-07T01:18:28;4.82;;;1.35;;
58950;SDS011;44730;53.158;6.398;2022-12-07T01:21:02;3.45;;;1.77;;
58950;SDS011;44730;53.158;6.398;2022-12-07T01:25:56;4.05;;;1.52;;
58950;SDS011;44730;53.158;6.398;2022-12-07T01:28:23;3.47;;;1.30;;
58950;SDS011;44730;53.158;6.398;2022-12-07T01:31:03;6.85;;;1.45;;
58950;SDS011;44730;53.158;6.398;2022-12-07T01:33:30;4.20;;;1.65;;
58950;SDS011;44730;53.158;6.398;2022-12-07T01:36:01;4.20;;;1.67;;
58950;SDS011;44730;53.158;6.398;2022-12-07T01:40:58;7.93;;;1.73;;
58950;SDS011;44730;53.158;6.398;2022-12-07T01:43:26;5.18;;;1.63;;
58950;SDS011;44730;53.158;6.398;2022-12-07T01:45:53;3.60;;;1.60;;
58950;SDS011;44730;53.158;6.398;2022-12-07T01:48:21;7.18;;;2.05;;
58950;SDS011;44730;53.158;6.398;2022-12-07T01:50:59;5.03;;;1.85;;
58950;SDS011;44730;53.158;6.398;2022-12-07T01:53:29;5.38;;;1.60;;
58950;SDS011;44730;53.158;6.398;2022-12-07T01:55:57;6.43;;;1.65;;
58950;SDS011;44730;53.158;6.398;2022-12-07T01:58:24;7.78;;;1.50;;
58950;SDS011;44730;53.158;6.398;2022-12-07T02:00:50;7.22;;;1.90;;
58950;SDS011;44730;53.158;6.398;2022-12-07T02:03:18;5.10;;;1.50;;
58950;SDS011;44730;53.158;6.398;2022-12-07T02:05:52;8.75;;;1.92;;
58950;SDS011;44730;53.158;6.398;2022-12-07T02:08:19;7.18;;;1.73;;
58950;SDS011;44730;53.158;6.398;2022-12-07T02:10:45;4.18;;;1.65;;
58950;SDS011;44730;53.158;6.398;2022-12-07T02:13:24;4.82;;;1.58;;
58950;SDS011;44730;53.158;6.398;2022-12-07T02:16:03;7.18;;;2.08;;
58950;SDS011;44730;53.158;6.398;2022-12-07T02:21:43;6.60;;;1.60;;
58950;SDS011;44730;53.158;6.398;2022-12-07T02:27:47;5.60;;;1.50;;
58950;SDS011;44730;53.158;6.398;2022-12-07T02:30:21;5.18;;;1.60;;
58950;SDS011;44730;53.158;6.398;2022-12-07T02:32:55;5.60;;;1.77;;
58950;SDS011;44730;53.158;6.398;2022-12-07T02:41:10;5.65;;;1.70;;
58950;SDS011;44730;53.158;6.398;2022-12-07T02:43:45;4.88;;;1.58;;
58950;SDS011;44730;53.158;6.398;2022-12-07T02:46:20;2.75;;;1.48;;
58950;SDS011;44730;53.158;6.398;2022-12-07T02:48:58;5.18;;;1.83;;
58950;SDS011;44730;53.158;6.398;2022-12-07T02:51:25;7.25;;;1.60;;
58950;SDS011;44730;53.158;6.398;2022-12-07T02:53:55;4.60;;;1.95;;
58950;SDS011;44730;53.158;6.398;2022-12-07T03:12:44;5.57;;;1.45;;
58950;SDS011;44730;53.158;6.398;2022-12-07T03:16:07;6.78;;;1.50;;
58950;SDS011;44730;53.158;6.398;2022-12-07T03:18:15;4.22;;;1.50;;
58950;SDS011;44730;53.158;6.398;2022-12-07T03:20:44;5.15;;;1.95;;
58950;SDS011;44730;53.158;6.398;2022-12-07T03:23:13;5.95;;;1.70;;
58950;SDS011;44730;53.158;6.398;2022-12-07T03:25:42;7.07;;;1.60;;
58950;SDS011;44730;53.158;6.398;2022-12-07T03:28:11;2.92;;;1.27;;
58950;SDS011;44730;53.158;6.398;2022-12-07T03:36:08;6.30;;;1.48;;
58950;SDS011;44730;53.158;6.398;2022-12-07T03:38:48;3.95;;;1.50;;
58950;SDS011;44730;53.158;6.398;2022-12-07T03:41:20;4.25;;;1.65;;
58950;SDS011;44730;53.158;6.398;2022-12-07T03:43:50;4.72;;;1.85;;
58950;SDS011;44730;53.158;6.398;2022-12-07T03:49:04;4.85;;;1.50;;
58950;SDS011;44730;53.158;6.398;2022-12-07T03:51:35;4.28;;;1.27;;
58950;SDS011;44730;53.158;6.398;2022-12-07T03:54:23;3.22;;;1.40;;
58950;SDS011;44730;53.158;6.398;2022-12-07T03:56:54;3.75;;;1.75;;
58950;SDS011;44730;53.158;6.398;2022-12-07T03:59:21;5.32;;;1.67;;
58950;SDS011;44730;53.158;6.398;2022-12-07T04:01:52;5.07;;;1.80;;
58950;SDS011;44730;53.158;6.398;2022-12-07T04:04:20;3.38;;;1.20;;
58950;SDS011;44730;53.158;6.398;2022-12-07T04:06:47;5.70;;;1.77;;
58950;SDS011;44730;53.158;6.398;2022-12-07T04:09:12;6.70;;;1.80;;
58950;SDS011;44730;53.158;6.398;2022-12-07T04:11:39;8.50;;;1.70;;
58950;SDS011;44730;53.158;6.398;2022-12-07T04:14:05;4.25;;;1.42;;
58950;SDS011;44730;53.158;6.398;2022-12-07T04:16:47;6.57;;;1.73;;
58950;SDS011;44730;53.158;6.398;2022-12-07T04:19:18;5.83;;;2.07;;
58950;SDS011;44730;53.158;6.398;2022-12-07T04:21:45;3.15;;;1.42;;
58950;SDS011;44730;53.158;6.398;2022-12-07T04:24:12;3.70;;;1.27;;
58950;SDS011;44730;53.158;6.398;2022-12-07T04:26:39;6.90;;;1.77;;
58950;SDS011;44730;53.158;6.398;2022-12-07T04:29:05;3.38;;;1.38;;
58950;SDS011;44730;53.158;6.398;2022-12-07T04:31:31;6.53;;;2.08;;
58950;SDS011;44730;53.158;6.398;2022-12-07T04:33:56;5.20;;;1.50;;
58950;SDS011;44730;53.158;6.398;2022-12-07T04:36:22;6.38;;;1.48;;
58950;SDS011;44730;53.158;6.398;2022-12-07T04:38:48;2.80;;;1.10;;
58950;SDS011;44730;53.158;6.398;2022-12-07T04:41:14;2.60;;;1.13;;
58950;SDS011;44730;53.158;6.398;2022-12-07T04:43:39;4.85;;;1.60;;
58950;SDS011;44730;53.158;6.398;2022-12-07T04:46:05;3.72;;;1.33;;
58950;SDS011;44730;53.158;6.398;2022-12-07T04:48:31;2.53;;;1.10;;
58950;SDS011;44730;53.158;6.398;2022-12-07T04:50:56;4.70;;;1.33;;
58950;SDS011;44730;53.158;6.398;2022-12-07T04:53:22;5.93;;;1.45;;
58950;SDS011;44730;53.158;6.398;2022-12-07T04:55:48;5.38;;;1.42;;
58950;SDS011;44730;53.158;6.398;2022-12-07T04:58:14;5.07;;;1.30;;
58950;SDS011;44730;53.158;6.398;2022-12-07T05:00:39;4.22;;;1.23;;
58950;SDS011;44730;53.158;6.398;2022-12-07T05:03:05;3.05;;;1.23;;
58950;SDS011;44730;53.158;6.398;2022-12-07T05:05:31;5.10;;;1.38;;
58950;SDS011;44730;53.158;6.398;2022-12-07T05:07:57;4.72;;;1.27;;
58950;SDS011;44730;53.158;6.398;2022-12-07T05:10:22;3.17;;;1.17;;
58950;SDS011;44730;53.158;6.398;2022-12-07T05:12:48;4.72;;;1.40;;
58950;SDS011;44730;53.158;6.398;2022-12-07T05:15:14;7.05;;;1.67;;
58950;SDS011;44730;53.158;6.398;2022-12-07T05:17:40;5.35;;;1.33;;
58950;SDS011;44730;53.158;6.398;2022-12-07T05:20:06;1.80;;;0.90;;
58950;SDS011;44730;53.158;6.398;2022-12-07T05:22:33;7.40;;;1.63;;
58950;SDS011;44730;53.158;6.398;2022-12-07T05:24:58;2.17;;;0.90;;
58950;SDS011;44730;53.158;6.398;2022-12-07T05:27:24;5.38;;;1.35;;
58950;SDS011;44730;53.158;6.398;2022-12-07T05:29:50;3.00;;;0.90;;
58950;SDS011;44730;53.158;6.398;2022-12-07T05:32:17;5.72;;;1.63;;
58950;SDS011;44730;53.158;6.398;2022-12-07T05:34:43;4.28;;;1.23;;
58950;SDS011;44730;53.158;6.398;2022-12-07T05:37:09;4.10;;;1.30;;
58950;SDS011;44730;53.158;6.398;2022-12-07T05:39:34;4.97;;;1.92;;
58950;SDS011;44730;53.158;6.398;2022-12-07T05:42:00;7.57;;;2.17;;
58950;SDS011;44730;53.158;6.398;2022-12-07T05:44:42;8.77;;;3.92;;
58950;SDS011;44730;53.158;6.398;2022-12-07T05:47:09;9.48;;;5.53;;
58950;SDS011;44730;53.158;6.398;2022-12-07T05:49:36;8.88;;;4.32;;
58950;SDS011;44730;53.158;6.398;2022-12-07T05:52:02;6.57;;;2.45;;
58950;SDS011;44730;53.158;6.398;2022-12-07T05:54:28;6.88;;;2.35;;
58950;SDS011;44730;53.158;6.398;2022-12-07T05:56:53;6.55;;;1.80;;
58950;SDS011;44730;53.158;6.398;2022-12-07T05:59:19;7.10;;;2.60;;
58950;SDS011;44730;53.158;6.398;2022-12-07T06:01:55;8.13;;;1.77;;
58950;SDS011;44730;53.158;6.398;2022-12-07T06:04:23;5.47;;;2.20;;
58950;SDS011;44730;53.158;6.398;2022-12-07T06:06:50;6.78;;;2.13;;
58950;SDS011;44730;53.158;6.398;2022-12-07T06:09:16;7.07;;;2.05;;
58950;SDS011;44730;53.158;6.398;2022-12-07T06:11:44;7.82;;;2.40;;
58950;SDS011;44730;53.158;6.398;2022-12-07T06:14:28;5.82;;;2.28;;
58950;SDS011;44730;53.158;6.398;2022-12-07T06:16:54;9.10;;;2.55;;
58950;SDS011;44730;53.158;6.398;2022-12-07T06:19:20;3.28;;;1.15;;
58950;SDS011;44730;53.158;6.398;2022-12-07T06:21:46;6.28;;;1.75;;
58950;SDS011;44730;53.158;6.398;2022-12-07T06:24:12;2.42;;;1.25;;
58950;SDS011;44730;53.158;6.398;2022-12-07T06:26:39;6.20;;;1.50;;
58950;SDS011;44730;53.158;6.398;2022-12-07T06:29:05;3.60;;;1.30;;
58950;SDS011;44730;53.158;6.398;2022-12-07T06:31:31;7.55;;;1.40;;
58950;SDS011;44730;53.158;6.398;2022-12-07T06:33:58;2.80;;;1.13;;
58950;SDS011;44730;53.158;6.398;2022-12-07T06:36:28;2.97;;;1.40;;
58950;SDS011;44730;53.158;6.398;2022-12-07T06:38:53;6.25;;;1.80;;
58950;SDS011;44730;53.158;6.398;2022-12-07T06:41:19;4.82;;;1.73;;
58950;SDS011;44730;53.158;6.398;2022-12-07T06:43:45;4.38;;;1.08;;
58950;SDS011;44730;53.158;6.398;2022-12-07T06:46:11;3.08;;;1.27;;
58950;SDS011;44730;53.158;6.398;2022-12-07T06:48:37;6.38;;;1.55;;
58950;SDS011;44730;53.158;6.398;2022-12-07T06:51:03;2.50;;;1.25;;
58950;SDS011;44730;53.158;6.398;2022-12-07T06:53:29;4.88;;;1.30;;
58950;SDS011;44730;53.158;6.398;2022-12-07T06:55:54;5.97;;;1.20;;
58950;SDS011;44730;53.158;6.398;2022-12-07T06:58:20;4.35;;;1.45;;
58950;SDS011;44730;53.158;6.398;2022-12-07T07:00:47;2.47;;;1.05;;
58950;SDS011;44730;53.158;6.398;2022-12-07T07:03:13;3.30;;;1.35;;
58950;SDS011;44730;53.158;6.398;2022-12-07T07:05:39;4.15;;;1.60;;
58950;SDS011;44730;53.158;6.398;2022-12-07T07:08:05;3.25;;;1.40;;
58950;SDS011;44730;53.158;6.398;2022-12-07T07:10:31;3.50;;;1.52;;
58950;SDS011;44730;53.158;6.398;2022-12-07T07:12:56;5.88;;;1.58;;
58950;SDS011;44730;53.158;6.398;2022-12-07T07:15:22;4.63;;;1.42;;
58950;SDS011;44730;53.158;6.398;2022-12-07T07:17:48;4.88;;;1.83;;
58950;SDS011;44730;53.158;6.398;2022-12-07T07:20:13;4.88;;;2.00;;
58950;SDS011;44730;53.158;6.398;2022-12-07T07:22:39;6.15;;;1.60;;
58950;SDS011;44730;53.158;6.398;2022-12-07T07:25:05;6.45;;;2.03;;
58950;SDS011;44730;53.158;6.398;2022-12-07T07:27:31;5.13;;;1.50;;
58950;SDS011;44730;53.158;6.398;2022-12-07T07:29:56;3.58;;;1.90;;
58950;SDS011;44730;53.158;6.398;2022-12-07T07:32:22;7.07;;;2.00;;
58950;SDS011;44730;53.158;6.398;2022-12-07T07:34:48;6.00;;;2.35;;
58950;SDS011;44730;53.158;6.398;2022-12-07T07:37:14;6.47;;;2.05;;
58950;SDS011;44730;53.158;6.398;2022-12-07T07:39:40;6.10;;;2.30;;
58950;SDS011;44730;53.158;6.398;2022-12-07T07:42:05;5.38;;;2.10;;
58950;SDS011;44730;53.158;6.398;2022-12-07T07:44:32;10.98;;;2.50;;
58950;SDS011;44730;53.158;6.398;2022-12-07T07:47:01;5.53;;;2.03;;
58950;SDS011;44730;53.158;6.398;2022-12-07T07:49:28;6.38;;;2.22;;
58950;SDS011;44730;53.158;6.398;2022-12-07T07:51:54;6.30;;;2.08;;
58950;SDS011;44730;53.158;6.398;2022-12-07T07:54:20;3.83;;;1.95;;
58950;SDS011;44730;53.158;6.398;2022-12-07T07:56:45;5.15;;;2.15;;
58950;SDS011;44730;53.158;6.398;2022-12-07T07:59:11;6.10;;;2.45;;
58950;SDS011;44730;53.158;6.398;2022-12-07T08:01:37;8.15;;;2.28;;
58950;SDS011;44730;53.158;6.398;2022-12-07T08:04:02;9.20;;;2.55;;
58950;SDS011;44730;53.158;6.398;2022-12-07T08:06:28;5.90;;;2.40;;
58950;SDS011;44730;53.158;6.398;2022-12-07T08:08:54;7.40;;;2.80;;
58950;SDS011;44730;53.158;6.398;2022-12-07T08:11:19;9.63;;;3.40;;
58950;SDS011;44730;53.158;6.398;2022-12-07T08:13:46;6.82;;;2.65;;
58950;SDS011;44730;53.158;6.398;2022-12-07T08:16:12;6.97;;;2.35;;
58950;SDS011;44730;53.158;6.398;2022-12-07T08:18:40;6.75;;;3.00;;
58950;SDS011;44730;53.158;6.398;2022-12-07T08:21:07;8.10;;;2.33;;
58950;SDS011;44730;53.158;6.398;2022-12-07T08:23:36;8.15;;;3.05;;
58950;SDS011;44730;53.158;6.398;2022-12-07T08:26:02;6.43;;;2.30;;
58950;SDS011;44730;53.158;6.398;2022-12-07T08:28:29;8.80;;;3.00;;
58950;SDS011;44730;53.158;6.398;2022-12-07T08:31:05;9.02;;;2.80;;
58950;SDS011;44730;53.158;6.398;2022-12-07T08:33:44;6.47;;;2.30;;
58950;SDS011;44730;53.158;6.398;2022-12-07T08:36:11;8.32;;;3.22;;
58950;SDS011;44730;53.158;6.398;2022-12-07T08:38:38;10.98;;;3.80;;
58950;SDS011;44730;53.158;6.398;2022-12-07T08:41:05;9.13;;;4.38;;
58950;SDS011;44730;53.158;6.398;2022-12-07T08:43:32;5.93;;;3.25;;
58950;SDS011;44730;53.158;6.398;2022-12-07T08:48:26;12.07;;;3.55;;
58950;SDS011;44730;53.158;6.398;2022-12-07T08:50:52;8.55;;;3.13;;
58950;SDS011;44730;53.158;6.398;2022-12-07T08:53:17;6.30;;;2.55;;
58950;SDS011;44730;53.158;6.398;2022-12-07T08:55:44;7.05;;;2.47;;
58950;SDS011;44730;53.158;6.398;2022-12-07T08:58:10;6.50;;;2.65;;
58950;SDS011;44730;53.158;6.398;2022-12-07T09:00:36;7.40;;;3.13;;
58950;SDS011;44730;53.158;6.398;2022-12-07T09:03:02;21.77;;;6.00;;
58950;SDS011;44730;53.158;6.398;2022-12-07T09:05:28;19.63;;;4.47;;
58950;SDS011;44730;53.158;6.398;2022-12-07T09:07:55;9.57;;;4.40;;
58950;SDS011;44730;53.158;6.398;2022-12-07T09:10:25;6.75;;;3.55;;
58950;SDS011;44730;53.158;6.398;2022-12-07T09:12:51;9.38;;;3.15;;
58950;SDS011;44730;53.158;6.398;2022-12-07T09:15:16;3.15;;;2.00;;
58950;SDS011;44730;53.158;6.398;2022-12-07T09:17:42;3.72;;;2.00;;
58950;SDS011;44730;53.158;6.398;2022-12-07T09:20:08;7.30;;;2.22;;
58950;SDS011;44730;53.158;6.398;2022-12-07T09:22:34;5.45;;;1.95;;
58950;SDS011;44730;53.158;6.398;2022-12-07T09:25:00;5.97;;;2.28;;
58950;SDS011;44730;53.158;6.398;2022-12-07T09:27:26;6.55;;;2.45;;
58950;SDS011;44730;53.158;6.398;2022-12-07T09:29:52;4.10;;;2.40;;
58950;SDS011;44730;53.158;6.398;2022-12-07T09:32:18;8.55;;;2.72;;
58950;SDS011;44730;53.158;6.398;2022-12-07T09:34:44;8.02;;;2.40;;
58950;SDS011;44730;53.158;6.398;2022-12-07T09:37:09;5.03;;;2.30;;
58950;SDS011;44730;53.158;6.398;2022-12-07T09:39:38;6.15;;;2.20;;
58950;SDS011;44730;53.158;6.398;2022-12-07T09:42:05;6.90;;;2.72;;
58950;SDS011;44730;53.158;6.398;2022-12-07T09:44:32;9.27;;;2.70;;
58950;SDS011;44730;53.158;6.398;2022-12-07T09:47:00;8.95;;;2.97;;
58950;SDS011;44730;53.158;6.398;2022-12-07T09:49:28;7.07;;;3.25;;
58950;SDS011;44730;53.158;6.398;2022-12-07T09:52:38;7.53;;;3.70;;
58950;SDS011;44730;53.158;6.398;2022-12-07T09:54:53;8.90;;;3.55;;
58950;SDS011;44730;53.158;6.398;2022-12-07T09:57:20;6.68;;;3.20;;
58950;SDS011;44730;53.158;6.398;2022-12-07T09:59:59;10.00;;;3.80;;
58950;SDS011;44730;53.158;6.398;2022-12-07T10:02:36;10.77;;;4.20;;
58950;SDS011;44730;53.158;6.398;2022-12-07T10:05:07;19.25;;;8.20;;
58950;SDS011;44730;53.158;6.398;2022-12-07T10:07:39;17.33;;;7.72;;
58950;SDS011;44730;53.158;6.398;2022-12-07T10:10:27;14.93;;;5.30;;
58950;SDS011;44730;53.158;6.398;2022-12-07T10:12:59;12.50;;;5.07;;
58950;SDS011;44730;53.158;6.398;2022-12-07T10:15:46;9.07;;;3.22;;
58950;SDS011;44730;53.158;6.398;2022-12-07T10:18:59;11.07;;;4.63;;
58950;SDS011;44730;53.158;6.398;2022-12-07T10:21:03;6.55;;;2.97;;
58950;SDS011;44730;53.158;6.398;2022-12-07T10:23:42;8.23;;;3.72;;
58950;SDS011;44730;53.158;6.398;2022-12-07T10:26:35;9.10;;;3.00;;
58950;SDS011;44730;53.158;6.398;2022-12-07T10:29:23;6.45;;;3.60;;
58950;SDS011;44730;53.158;6.398;2022-12-07T10:34:51;6.90;;;2.33;;
58950;SDS011;44730;53.158;6.398;2022-12-07T10:37:39;4.50;;;2.10;;
58950;SDS011;44730;53.158;6.398;2022-12-07T10:40:23;8.25;;;2.53;;
58950;SDS011;44730;53.158;6.398;2022-12-07T10:54:38;11.80;;;2.25;;
58950;SDS011;44730;53.158;6.398;2022-12-07T11:13:21;5.13;;;1.20;;
58950;SDS011;44730;53.158;6.398;2022-12-07T11:16:35;1.67;;;1.10;;
58950;SDS011;44730;53.158;6.398;2022-12-07T11:24:49;3.65;;;1.48;;
58950;SDS011;44730;53.158;6.398;2022-12-07T11:27:41;3.15;;;1.40;;
58950;SDS011;44730;53.158;6.398;2022-12-07T11:35:50;6.35;;;1.77;;
58950;SDS011;44730;53.158;6.398;2022-12-07T11:38:52;5.18;;;1.70;;
58950;SDS011;44730;53.158;6.398;2022-12-07T11:41:20;2.33;;;1.30;;
58950;SDS011;44730;53.158;6.398;2022-12-07T11:52:47;3.08;;;1.40;;
58950;SDS011;44730;53.158;6.398;2022-12-07T12:03:52;8.52;;;1.20;;
58950;SDS011;44730;53.158;6.398;2022-12-07T12:06:23;4.40;;;1.30;;
58950;SDS011;44730;53.158;6.398;2022-12-07T12:11:44;8.80;;;1.83;;
58950;SDS011;44730;53.158;6.398;2022-12-07T12:25:54;3.47;;;1.30;;
58950;SDS011;44730;53.158;6.398;2022-12-07T12:31:06;2.25;;;1.25;;
58950;SDS011;44730;53.158;6.398;2022-12-07T12:33:36;4.57;;;1.92;;
58950;SDS011;44730;53.158;6.398;2022-12-07T12:39:07;4.68;;;1.00;;
58950;SDS011;44730;53.158;6.398;2022-12-07T12:49:40;2.75;;;0.90;;
58950;SDS011;44730;53.158;6.398;2022-12-07T12:57:38;2.35;;;0.98;;
58950;SDS011;44730;53.158;6.398;2022-12-07T13:00:15;1.67;;;0.93;;
58950;SDS011;44730;53.158;6.398;2022-12-07T13:02:53;2.95;;;1.00;;
58950;SDS011;44730;53.158;6.398;2022-12-07T13:05:24;2.83;;;1.40;;
58950;SDS011;44730;53.158;6.398;2022-12-07T13:10:34;3.15;;;1.23;;
58950;SDS011;44730;53.158;6.398;2022-12-07T13:15:47;2.83;;;1.48;;
58950;SDS011;44730;53.158;6.398;2022-12-07T13:18:39;3.88;;;2.05;;
58950;SDS011;44730;53.158;6.398;2022-12-07T13:26:16;28.25;;;18.33;;
58950;SDS011;44730;53.158;6.398;2022-12-07T13:31:46;10.73;;;6.82;;
58950;SDS011;44730;53.158;6.398;2022-12-07T13:34:31;32.00;;;19.52;;
58950;SDS011;44730;53.158;6.398;2022-12-07T13:36:57;15.10;;;8.13;;
58950;SDS011;44730;53.158;6.398;2022-12-07T13:39:35;34.00;;;21.30;;
58950;SDS011;44730;53.158;6.398;2022-12-07T13:44:57;26.52;;;15.52;;
58950;SDS011;44730;53.158;6.398;2022-12-07T13:47:35;12.00;;;6.10;;
58950;SDS011;44730;53.158;6.398;2022-12-07T13:50:24;10.38;;;5.65;;
58950;SDS011;44730;53.158;6.398;2022-12-07T13:52:54;23.13;;;12.95;;
58950;SDS011;44730;53.158;6.398;2022-12-07T13:55:22;17.58;;;9.52;;
58950;SDS011;44730;53.158;6.398;2022-12-07T13:57:50;10.57;;;5.03;;
58950;SDS011;44730;53.158;6.398;2022-12-07T14:00:21;39.70;;;22.08;;
58950;SDS011;44730;53.158;6.398;2022-12-07T14:02:57;19.33;;;10.57;;
58950;SDS011;44730;53.158;6.398;2022-12-07T14:05:29;18.02;;;9.82;;
58950;SDS011;44730;53.158;6.398;2022-12-07T14:08:00;34.90;;;20.00;;
58950;SDS011;44730;53.158;6.398;2022-12-07T14:13:01;17.10;;;9.27;;
58950;SDS011;44730;53.158;6.398;2022-12-07T14:15:30;15.60;;;7.78;;
58950;SDS011;44730;53.158;6.398;2022-12-07T14:17:57;7.30;;;3.72;;
58950;SDS011;44730;53.158;6.398;2022-12-07T14:20:36;12.80;;;5.45;;
58950;SDS011;44730;53.158;6.398;2022-12-07T14:23:04;10.43;;;5.32;;
58950;SDS011;44730;53.158;6.398;2022-12-07T14:25:46;33.38;;;18.92;;
58950;SDS011;44730;53.158;6.398;2022-12-07T14:28:33;25.73;;;14.00;;
58950;SDS011;44730;53.158;6.398;2022-12-07T14:31:00;15.43;;;8.70;;
58950;SDS011;44730;53.158;6.398;2022-12-07T14:33:27;19.58;;;9.05;;
58950;SDS011;44730;53.158;6.398;2022-12-07T14:35:53;6.60;;;2.85;;
58950;SDS011;44730;53.158;6.398;2022-12-07T14:38:23;3.78;;;2.28;;
58950;SDS011;44730;53.158;6.398;2022-12-07T14:40:53;6.22;;;3.42;;
58950;SDS011;44730;53.158;6.398;2022-12-07T14:43:39;9.50;;;4.18;;
58950;SDS011;44730;53.158;6.398;2022-12-07T14:46:05;5.07;;;2.60;;
58950;SDS011;44730;53.158;6.398;2022-12-07T14:48:31;15.88;;;7.68;;
58950;SDS011;44730;53.158;6.398;2022-12-07T14:50:57;4.30;;;1.95;;
58950;SDS011;44730;53.158;6.398;2022-12-07T14:53:25;3.90;;;1.90;;
58950;SDS011;44730;53.158;6.398;2022-12-07T14:56:00;4.30;;;2.30;;
58950;SDS011;44730;53.158;6.398;2022-12-07T14:58:26;6.75;;;3.92;;
58950;SDS011;44730;53.158;6.398;2022-12-07T15:00:52;5.45;;;2.78;;
58950;SDS011;44730;53.158;6.398;2022-12-07T15:03:17;7.50;;;2.63;;
58950;SDS011;44730;53.158;6.398;2022-12-07T15:05:43;15.00;;;7.93;;
58950;SDS011;44730;53.158;6.398;2022-12-07T15:08:10;14.45;;;7.53;;
58950;SDS011;44730;53.158;6.398;2022-12-07T15:10:37;11.57;;;6.28;;
58950;SDS011;44730;53.158;6.398;2022-12-07T15:13:03;10.95;;;5.80;;
58950;SDS011;44730;53.158;6.398;2022-12-07T15:15:48;8.98;;;5.45;;
58950;SDS011;44730;53.158;6.398;2022-12-07T15:18:16;13.70;;;8.18;;
58950;SDS011;44730;53.158;6.398;2022-12-07T15:20:42;19.23;;;9.68;;
58950;SDS011;44730;53.158;6.398;2022-12-07T15:23:09;14.00;;;6.95;;
58950;SDS011;44730;53.158;6.398;2022-12-07T15:25:35;29.35;;;14.90;;
58950;SDS011;44730;53.158;6.398;2022-12-07T15:28:01;19.15;;;9.98;;
58950;SDS011;44730;53.158;6.398;2022-12-07T15:30:27;6.05;;;3.15;;
58950;SDS011;44730;53.158;6.398;2022-12-07T15:32:53;18.23;;;9.48;;
58950;SDS011;44730;53.158;6.398;2022-12-07T15:35:19;5.95;;;3.13;;
58950;SDS011;44730;53.158;6.398;2022-12-07T15:37:45;11.57;;;4.40;;
58950;SDS011;44730;53.158;6.398;2022-12-07T15:40:11;9.75;;;5.00;;
58950;SDS011;44730;53.158;6.398;2022-12-07T15:42:38;11.45;;;5.55;;
58950;SDS011;44730;53.158;6.398;2022-12-07T15:45:04;11.05;;;5.47;;
58950;SDS011;44730;53.158;6.398;2022-12-07T15:47:31;7.40;;;3.58;;
58950;SDS011;44730;53.158;6.398;2022-12-07T15:49:59;12.35;;;5.57;;
58950;SDS011;44730;53.158;6.398;2022-12-07T15:52:25;8.52;;;4.72;;
58950;SDS011;44730;53.158;6.398;2022-12-07T15:54:51;8.68;;;4.63;;
58950;SDS011;44730;53.158;6.398;2022-12-07T15:57:17;9.70;;;5.13;;
58950;SDS011;44730;53.158;6.398;2022-12-07T15:59:42;14.90;;;7.90;;
58950;SDS011;44730;53.158;6.398;2022-12-07T16:02:09;17.13;;;9.88;;
58950;SDS011;44730;53.158;6.398;2022-12-07T16:04:35;6.10;;;3.50;;
58950;SDS011;44730;53.158;6.398;2022-12-07T16:07:01;7.57;;;4.03;;
58950;SDS011;44730;53.158;6.398;2022-12-07T16:09:27;6.30;;;4.25;;
58950;SDS011;44730;53.158;6.398;2022-12-07T16:11:53;15.85;;;6.75;;
58950;SDS011;44730;53.158;6.398;2022-12-07T16:14:19;8.30;;;5.00;;
58950;SDS011;44730;53.158;6.398;2022-12-07T16:16:46;7.68;;;3.25;;
58950;SDS011;44730;53.158;6.398;2022-12-07T16:19:12;10.43;;;4.13;;
58950;SDS011;44730;53.158;6.398;2022-12-07T16:21:38;8.35;;;5.50;;
58950;SDS011;44730;53.158;6.398;2022-12-07T16:24:05;13.75;;;8.45;;
58950;SDS011;44730;53.158;6.398;2022-12-07T16:26:31;11.15;;;6.40;;
58950;SDS011;44730;53.158;6.398;2022-12-07T16:28:57;7.90;;;3.92;;
58950;SDS011;44730;53.158;6.398;2022-12-07T16:31:24;6.68;;;2.40;;
58950;SDS011;44730;53.158;6.398;2022-12-07T16:33:55;3.90;;;2.65;;
58950;SDS011;44730;53.158;6.398;2022-12-07T16:36:23;6.68;;;2.53;;
58950;SDS011;44730;53.158;6.398;2022-12-07T16:38:50;3.42;;;2.15;;
58950;SDS011;44730;53.158;6.398;2022-12-07T16:41:16;3.70;;;2.10;;
58950;SDS011;44730;53.158;6.398;2022-12-07T16:43:42;4.07;;;1.83;;
58950;SDS011;44730;53.158;6.398;2022-12-07T16:46:08;3.28;;;1.80;;
58950;SDS011;44730;53.158;6.398;2022-12-07T16:48:38;2.75;;;1.95;;
58950;SDS011;44730;53.158;6.398;2022-12-07T16:51:05;3.53;;;1.55;;
58950;SDS011;44730;53.158;6.398;2022-12-07T16:53:33;10.98;;;4.97;;
58950;SDS011;44730;53.158;6.398;2022-12-07T16:56:00;6.47;;;3.10;;
58950;SDS011;44730;53.158;6.398;2022-12-07T16:58:26;17.05;;;8.73;;
58950;SDS011;44730;53.158;6.398;2022-12-07T17:00:52;9.40;;;5.55;;
58950;SDS011;44730;53.158;6.398;2022-12-07T17:03:17;8.85;;;5.07;;
58950;SDS011;44730;53.158;6.398;2022-12-07T17:05:44;2.63;;;1.73;;
58950;SDS011;44730;53.158;6.398;2022-12-07T17:08:10;8.93;;;4.57;;
58950;SDS011;44730;53.158;6.398;2022-12-07T17:10:38;16.65;;;9.55;;
58950;SDS011;44730;53.158;6.398;2022-12-07T17:13:05;10.10;;;5.32;;
58950;SDS011;44730;53.158;6.398;2022-12-07T17:15:57;11.57;;;6.13;;
58950;SDS011;44730;53.158;6.398;2022-12-07T17:18:24;9.17;;;4.43;;
58950;SDS011;44730;53.158;6.398;2022-12-07T17:20:52;8.45;;;4.80;;
58950;SDS011;44730;53.158;6.398;2022-12-07T17:23:17;13.13;;;7.75;;
58950;SDS011;44730;53.158;6.398;2022-12-07T17:25:44;17.40;;;9.30;;
58950;SDS011;44730;53.158;6.398;2022-12-07T17:28:10;12.35;;;7.13;;
58950;SDS011;44730;53.158;6.398;2022-12-07T17:30:36;12.00;;;5.97;;
58950;SDS011;44730;53.158;6.398;2022-12-07T17:33:03;7.43;;;4.30;;